Time;durP1;ratioP1;P1;durP2;ratioP2;P2;SDS_P1;SDS_P2;PMS_P1;PMS_P2;Temp;Humidity;BMP_temperature;BMP_pressure;BME280_temperature;BME280_humidity;BME280_pressure;Samples;Min_cycle;Max_cycle;Signal;HPM_P1;HPM_P2
2022/07/11 00:01:43;;;;;;;6.33;1.70;;;14.40;74.60;;;;;;4993165;28;20480;-51
2022/07/11 00:04:10;;;;;;;3.13;1.60;;;14.30;80.70;;;;;;4998761;28;20477;-53
2022/07/11 00:06:38;;;;;;;6.53;1.37;;;14.30;99.90;;;;;;4993182;28;20505;-53
2022/07/11 00:09:04;;;;;;;7.70;2.17;;;14.20;99.90;;;;;;4990841;28;20487;-53
2022/07/11 00:11:31;;;;;;;5.10;1.60;;;14.20;99.90;;;;;;4999527;28;20500;-53
2022/07/11 00:13:57;;;;;;;5.57;1.67;;;14.10;99.90;;;;;;4993102;28;20495;-52
2022/07/11 00:16:24;;;;;;;12.10;2.50;;;14.10;99.90;;;;;;4996002;28;20631;-53
2022/07/11 00:18:50;;;;;;;5.67;2.10;;;14.00;99.90;;;;;;4993235;28;20950;-53
2022/07/11 00:21:18;;;;;;;10.63;2.00;;;14.00;99.90;;;;;;4993620;28;21012;-53
2022/07/11 00:23:45;;;;;;;6.73;1.57;;;13.90;99.90;;;;;;4992004;28;20518;-52
2022/07/11 00:26:12;;;;;;;10.50;1.67;;;13.80;99.90;;;;;;4992035;28;20509;-53
2022/07/11 00:28:39;;;;;;;11.87;2.40;;;13.90;99.90;;;;;;4992311;28;20512;-53
2022/07/11 00:31:07;;;;;;;10.33;2.60;;;13.80;99.90;;;;;;4991928;28;21358;-53
2022/07/11 00:33:34;;;;;;;4.50;2.37;;;13.70;99.90;;;;;;4997358;28;20459;-52
2022/07/11 00:36:00;;;;;;;4.00;1.63;;;13.70;99.90;;;;;;4992522;28;20522;-52
2022/07/11 00:38:27;;;;;;;4.73;1.70;;;13.60;99.90;;;;;;4991664;28;20527;-53
2022/07/11 00:40:55;;;;;;;3.53;1.73;;;13.50;99.90;;;;;;4994491;28;20464;-53
2022/07/11 00:43:30;;;;;;;4.30;1.60;;;13.50;99.90;;;;;;4991674;28;20974;-53
2022/07/11 00:45:57;;;;;;;2.00;1.53;;;13.40;99.90;;;;;;4994546;28;20503;-53
2022/07/11 00:48:24;;;;;;;4.30;1.57;;;13.30;99.90;;;;;;4992281;28;20499;-52
2022/07/11 00:50:50;;;;;;;3.17;1.40;;;13.30;99.90;;;;;;4992185;28;20481;-53
2022/07/11 00:53:18;;;;;;;5.63;1.87;;;13.30;99.90;;;;;;4985997;28;20499;-53
2022/07/11 00:55:45;;;;;;;4.77;1.40;;;13.20;99.90;;;;;;4991520;28;20978;-53
2022/07/11 00:58:14;;;;;;;7.40;1.77;;;13.20;99.90;;;;;;4997229;28;20464;-53
2022/07/11 01:00:41;;;;;;;7.50;1.70;;;13.20;99.90;;;;;;4990957;28;20499;-53
2022/07/11 01:03:08;;;;;;;6.70;1.67;;;13.20;99.90;;;;;;4996575;28;20511;-51
2022/07/11 01:05:35;;;;;;;8.80;1.93;;;13.10;99.90;;;;;;4991963;28;20482;-53
2022/07/11 01:08:01;;;;;;;8.67;2.00;;;13.10;99.90;;;;;;4982752;28;20485;-53
2022/07/11 01:10:28;;;;;;;3.93;1.53;;;13.00;99.90;;;;;;4988951;28;20496;-54
2022/07/11 01:12:55;;;;;;;5.87;1.60;;;12.90;99.90;;;;;;4988577;28;20543;-53
2022/07/11 01:15:24;;;;;;;4.97;1.57;;;12.80;99.90;;;;;;4993395;28;20468;-52
2022/07/11 01:17:51;;;;;;;5.13;1.43;;;12.70;99.90;;;;;;4993112;28;20531;-52
2022/07/11 01:20:18;;;;;;;4.33;1.70;;;12.70;99.90;;;;;;4991338;28;20906;-53
2022/07/11 01:22:48;;;;;;;9.93;2.50;;;12.60;99.90;;;;;;4997750;28;20546;-53
2022/07/11 01:25:29;;;;;;;8.20;1.97;;;12.60;99.90;;;;;;4990563;28;20465;-52
2022/07/11 01:27:57;;;;;;;5.90;1.63;;;12.50;99.90;;;;;;4985561;28;20456;-52
2022/07/11 01:30:24;;;;;;;7.80;2.60;;;12.50;99.90;;;;;;4994071;28;20464;-52
2022/07/11 01:32:52;;;;;;;8.40;1.80;;;12.40;99.90;;;;;;4990369;28;20464;-52
2022/07/11 01:35:18;;;;;;;6.03;2.03;;;12.30;99.90;;;;;;4989599;28;20464;-53
2022/07/11 01:37:45;;;;;;;12.00;2.20;;;12.30;99.90;;;;;;4986475;28;21151;-53
2022/07/11 01:40:12;;;;;;;8.90;2.20;;;12.30;99.90;;;;;;4987268;28;20496;-52
2022/07/11 01:42:40;;;;;;;2.10;1.17;;;12.30;99.90;;;;;;4992492;28;20579;-53
2022/07/11 01:45:07;;;;;;;13.13;1.93;;;12.30;99.90;;;;;;4990510;28;20567;-52
2022/07/11 01:47:34;;;;;;;11.80;2.70;;;12.30;99.90;;;;;;4989289;28;20558;-53
2022/07/11 01:50:01;;;;;;;3.30;1.20;;;12.30;99.90;;;;;;4982306;28;20492;-53
2022/07/11 01:52:28;;;;;;;2.70;1.50;;;12.40;99.90;;;;;;4990731;28;20491;-53
2022/07/11 01:54:54;;;;;;;6.13;1.57;;;12.40;99.90;;;;;;4993861;28;20456;-53
2022/07/11 01:57:21;;;;;;;4.13;1.87;;;12.40;99.90;;;;;;5015892;23;20507;-53
2022/07/11 01:59:49;;;;;;;5.80;1.50;;;12.30;99.90;;;;;;5018352;28;20480;-53
2022/07/11 02:02:16;;;;;;;10.70;2.53;;;12.30;99.90;;;;;;5009191;28;20826;-53
2022/07/11 02:04:43;;;;;;;5.53;1.97;;;12.30;99.90;;;;;;5017905;28;22474;-52
2022/07/11 02:07:11;;;;;;;10.33;1.30;;;12.30;99.90;;;;;;5022566;28;20577;-53
2022/07/11 02:09:37;;;;;;;1.33;1.23;;;12.30;99.90;;;;;;5036342;28;21039;-52
2022/07/11 02:12:05;;;;;;;7.80;2.13;;;12.30;99.90;;;;;;5028987;28;20455;-52
2022/07/11 02:14:32;;;;;;;4.40;1.70;;;12.30;99.90;;;;;;5032234;28;20846;-52
2022/07/11 02:17:00;;;;;;;18.17;1.87;;;12.20;99.90;;;;;;5029473;28;20475;-53
2022/07/11 02:19:27;;;;;;;9.50;1.53;;;12.20;99.90;;;;;;5029353;28;20512;-53
2022/07/11 02:21:53;;;;;;;4.10;1.70;;;12.20;99.90;;;;;;5032498;28;20529;-52
2022/07/11 02:24:20;;;;;;;4.57;1.67;;;12.30;99.90;;;;;;5030520;28;20510;-52
2022/07/11 02:26:46;;;;;;;3.40;1.57;;;12.30;99.90;;;;;;5029680;28;20544;-52
2022/07/11 02:29:13;;;;;;;3.80;1.83;;;12.30;99.90;;;;;;5031807;28;20478;-54
2022/07/11 02:31:39;;;;;;;6.23;1.57;;;12.30;99.90;;;;;;5034628;28;20497;-52
2022/07/11 02:34:07;;;;;;;4.37;2.10;;;12.30;99.90;;;;;;5027029;28;20957;-52
2022/07/11 02:36:34;;;;;;;8.40;2.13;;;12.30;99.90;;;;;;5036883;28;20571;-53
2022/07/11 02:39:00;;;;;;;3.70;1.10;;;12.20;99.90;;;;;;5025908;28;21050;-53
2022/07/11 02:41:29;;;;;;;4.67;1.60;;;12.20;99.90;;;;;;5027897;28;20486;-53
2022/07/11 02:43:55;;;;;;;12.53;1.67;;;12.20;99.90;;;;;;5028453;28;20486;-52
2022/07/11 02:46:22;;;;;;;4.53;1.73;;;12.10;99.90;;;;;;5030916;28;20478;-53
2022/07/11 02:48:49;;;;;;;8.53;4.33;;;12.10;99.90;;;;;;5025860;28;20845;-53
2022/07/11 02:51:18;;;;;;;5.63;1.63;;;12.00;99.90;;;;;;5034199;28;20447;-52
2022/07/11 02:53:45;;;;;;;4.13;1.93;;;12.10;99.90;;;;;;5028816;28;20465;-52
2022/07/11 02:56:13;;;;;;;8.40;1.57;;;12.10;99.90;;;;;;5035318;28;20478;-52
2022/07/11 02:58:39;;;;;;;6.97;2.10;;;12.00;99.90;;;;;;5034601;28;21118;-52
2022/07/11 03:01:06;;;;;;;5.03;1.60;;;12.00;99.90;;;;;;5033385;28;20505;-53
2022/07/11 03:03:32;;;;;;;4.00;1.50;;;12.00;99.90;;;;;;5029499;28;20526;-53
2022/07/11 03:05:59;;;;;;;7.97;1.80;;;12.00;99.90;;;;;;5027232;28;20503;-52
2022/07/11 03:08:27;;;;;;;4.20;1.90;;;12.00;99.90;;;;;;5032891;28;20874;-52
2022/07/11 03:10:54;;;;;;;5.40;1.43;;;11.90;99.90;;;;;;5025828;28;20463;-52
2022/07/11 03:13:20;;;;;;;9.90;2.80;;;11.90;99.90;;;;;;5040032;28;20479;-53
2022/07/11 03:15:47;;;;;;;4.80;1.60;;;11.90;99.90;;;;;;5036829;28;20913;-54
2022/07/11 03:18:13;;;;;;;9.27;2.00;;;11.90;99.90;;;;;;5025106;28;20525;-52
2022/07/11 03:20:40;;;;;;;3.53;1.43;;;11.90;99.90;;;;;;5032018;28;20455;-54
2022/07/11 03:23:07;;;;;;;4.40;1.23;;;11.90;99.90;;;;;;5033053;28;20532;-53
2022/07/11 03:25:34;;;;;;;6.10;1.63;;;11.90;99.90;;;;;;5027584;28;20463;-53
2022/07/11 03:28:01;;;;;;;7.83;1.80;;;11.90;99.90;;;;;;5035606;28;20911;-53
2022/07/11 03:30:28;;;;;;;4.37;2.00;;;11.80;99.90;;;;;;5032662;28;21054;-53
2022/07/11 03:32:54;;;;;;;13.53;1.77;;;11.90;99.90;;;;;;5032658;28;21381;-52
2022/07/11 03:38:05;;;;;;;3.53;1.70;;;11.80;99.90;;;;;;5033479;28;20617;-52
2022/07/11 03:40:32;;;;;;;4.70;1.53;;;11.80;99.90;;;;;;5038678;28;20551;-53
2022/07/11 03:43:00;;;;;;;3.43;1.40;;;11.70;99.90;;;;;;5032647;28;20483;-53
2022/07/11 03:45:27;;;;;;;5.83;2.27;;;11.70;99.90;;;;;;5030366;28;20463;-52
2022/07/11 03:47:54;;;;;;;11.17;2.33;;;11.70;99.90;;;;;;5024796;28;20479;-52
2022/07/11 03:50:20;;;;;;;5.60;1.60;;;11.70;99.90;;;;;;5030209;28;20526;-51
2022/07/11 03:52:47;;;;;;;6.67;2.03;;;11.70;99.90;;;;;;5031249;28;20455;-51
2022/07/11 03:55:14;;;;;;;5.20;1.93;;;11.70;99.90;;;;;;5031289;28;20949;-51
2022/07/11 03:57:40;;;;;;;7.40;1.80;;;11.70;99.90;;;;;;5034357;28;20537;-51
2022/07/11 04:00:10;;;;;;;9.23;2.10;;;11.70;99.90;;;;;;5035210;28;20463;-51
2022/07/11 04:02:36;;;;;;;5.27;2.00;;;11.70;99.90;;;;;;5029989;28;20510;-51
2022/07/11 04:05:03;;;;;;;2.87;1.40;;;11.70;99.90;;;;;;5036156;28;20468;-52
2022/07/11 04:07:30;;;;;;;2.03;1.80;;;11.70;99.90;;;;;;5032556;28;20518;-51
2022/07/11 04:09:57;;;;;;;6.10;1.80;;;11.70;99.90;;;;;;5042536;28;20541;-51
2022/07/11 04:12:24;;;;;;;4.80;1.50;;;11.70;99.90;;;;;;5036235;28;20491;-52
2022/07/11 04:14:51;;;;;;;10.33;2.00;;;11.70;99.90;;;;;;5032104;28;20517;-52
2022/07/11 04:17:18;;;;;;;8.83;2.23;;;11.80;99.90;;;;;;5031414;28;20518;-52
2022/07/11 04:19:45;;;;;;;7.33;2.10;;;11.80;99.90;;;;;;5037807;28;20455;-52
2022/07/11 04:22:12;;;;;;;4.83;1.90;;;11.80;99.90;;;;;;5025126;28;20515;-53
2022/07/11 04:24:38;;;;;;;5.13;1.67;;;11.80;99.90;;;;;;5030836;28;20490;-52
2022/07/11 04:27:06;;;;;;;10.90;2.57;;;11.80;99.90;;;;;;5032727;28;20509;-52
2022/07/11 04:29:32;;;;;;;7.90;2.43;;;11.80;99.90;;;;;;5038088;28;20842;-53
2022/07/11 04:31:59;;;;;;;9.23;2.10;;;11.90;99.90;;;;;;5033962;28;20539;-53
2022/07/11 04:34:27;;;;;;;6.20;1.97;;;11.90;99.90;;;;;;5025991;28;20534;-53
2022/07/11 04:36:54;;;;;;;8.07;1.70;;;11.90;99.90;;;;;;5035024;28;20514;-52
2022/07/11 04:39:20;;;;;;;5.40;2.23;;;11.90;99.90;;;;;;5031925;28;20454;-52
2022/07/11 04:41:47;;;;;;;3.00;2.10;;;12.00;99.90;;;;;;5031847;28;20513;-51
2022/07/11 04:44:13;;;;;;;11.10;2.00;;;12.00;99.90;;;;;;5037668;28;20518;-53
2022/07/11 04:46:40;;;;;;;4.43;1.60;;;12.00;99.90;;;;;;5031066;28;21038;-53
2022/07/11 04:49:06;;;;;;;3.73;1.93;;;12.10;99.90;;;;;;5041474;28;20462;-53
2022/07/11 04:51:36;;;;;;;3.97;2.00;;;12.20;99.90;;;;;;5026805;28;20486;-53
2022/07/11 04:54:02;;;;;;;4.67;2.27;;;12.20;99.90;;;;;;5038111;28;20466;-52
2022/07/11 04:56:29;;;;;;;4.73;2.03;;;12.30;99.90;;;;;;5034445;28;21014;-53
2022/07/11 04:58:55;;;;;;;8.47;1.83;;;12.30;99.90;;;;;;5024251;28;20459;-53
2022/07/11 05:01:22;;;;;;;7.20;2.40;;;12.30;99.90;;;;;;5031293;28;20439;-52
2022/07/11 05:03:48;;;;;;;9.17;2.30;;;12.40;99.90;;;;;;5025111;28;20514;-52
2022/07/11 05:06:15;;;;;;;6.90;1.80;;;12.50;99.90;;;;;;5023038;28;21025;-53
2022/07/11 05:08:44;;;;;;;5.80;1.77;;;12.50;99.90;;;;;;5032165;28;20893;-53
2022/07/11 05:11:10;;;;;;;5.83;2.17;;;12.50;99.90;;;;;;5032343;28;20493;-52
2022/07/11 05:13:37;;;;;;;12.90;2.23;;;12.60;99.90;;;;;;5032587;28;20461;-53
2022/07/11 05:16:04;;;;;;;14.63;2.20;;;12.60;99.90;;;;;;5033010;28;20558;-52
2022/07/11 05:18:31;;;;;;;8.60;2.93;;;12.70;99.90;;;;;;5028802;28;21070;-53
2022/07/11 05:20:58;;;;;;;8.60;2.10;;;12.70;99.90;;;;;;5029216;28;20512;-53
2022/07/11 05:23:25;;;;;;;4.77;1.70;;;12.80;99.90;;;;;;5025946;28;20478;-53
2022/07/11 05:25:53;;;;;;;12.07;2.70;;;12.80;99.90;;;;;;5028746;28;20494;-53
2022/07/11 05:28:19;;;;;;;16.63;2.73;;;12.80;99.90;;;;;;5033064;28;20504;-52
2022/07/11 05:30:46;;;;;;;8.50;2.97;;;12.90;99.90;;;;;;5015019;28;20490;-52
2022/07/11 05:33:12;;;;;;;5.40;2.07;;;12.90;99.90;;;;;;5025858;28;20490;-53
2022/07/11 05:35:39;;;;;;;5.23;2.00;;;13.00;99.90;;;;;;5021565;28;20490;-52
2022/07/11 05:38:06;;;;;;;9.50;2.70;;;13.00;99.90;;;;;;5019123;28;20569;-52
2022/07/11 05:40:32;;;;;;;11.80;2.40;;;13.00;99.90;;;;;;5020316;28;20513;-53
2022/07/11 05:43:01;;;;;;;6.10;2.97;;;13.10;99.90;;;;;;5017582;28;20576;-53
2022/07/11 05:45:28;;;;;;;4.13;2.30;;;13.10;99.90;;;;;;5025689;28;20466;-53
2022/07/11 05:47:54;;;;;;;6.90;2.27;;;13.20;99.90;;;;;;5028483;28;20506;-53
2022/07/11 05:50:21;;;;;;;5.90;2.43;;;13.20;99.90;;;;;;5030579;28;20462;-53
2022/07/11 05:52:47;;;;;;;5.77;2.20;;;13.20;99.90;;;;;;5025885;28;20501;-54
2022/07/11 05:55:14;;;;;;;11.73;2.23;;;13.30;99.90;;;;;;5026742;28;20495;-53
2022/07/11 05:57:41;;;;;;;11.40;2.30;;;13.30;99.90;;;;;;5021027;28;20914;-53
2022/07/11 06:00:10;;;;;;;12.30;2.80;;;13.40;99.90;;;;;;5018568;28;20568;-53
2022/07/11 06:02:36;;;;;;;6.27;2.00;;;13.50;99.90;;;;;;5034195;28;20535;-53
2022/07/11 06:05:03;;;;;;;6.80;1.93;;;13.50;99.90;;;;;;5028093;28;20489;-53
2022/07/11 06:10:14;;;;;;;7.10;2.10;;;13.60;99.90;;;;;;5018889;28;21191;-51
2022/07/11 06:12:41;;;;;;;8.40;3.30;;;13.70;99.90;;;;;;5019266;28;20542;-52
2022/07/11 06:15:11;;;;;;;3.40;2.13;;;13.70;99.90;;;;;;5033970;28;20462;-52
2022/07/11 06:17:37;;;;;;;15.80;3.50;;;13.80;99.90;;;;;;5029530;28;20496;-52
2022/07/11 06:20:04;;;;;;;6.53;2.77;;;13.90;99.90;;;;;;5024837;28;20494;-52
2022/07/11 06:22:31;;;;;;;6.87;2.07;;;14.00;99.90;;;;;;5032747;28;20516;-52
2022/07/11 06:24:58;;;;;;;7.13;2.03;;;13.90;99.90;;;;;;5027724;28;20494;-52
2022/07/11 06:27:25;;;;;;;5.33;2.57;;;14.00;99.90;;;;;;5035727;28;21029;-53
2022/07/11 06:29:51;;;;;;;5.07;1.83;;;14.00;99.90;;;;;;5030458;28;20899;-53
2022/07/11 06:32:19;;;;;;;5.63;2.13;;;14.10;99.90;;;;;;5020063;28;20471;-53
2022/07/11 06:34:46;;;;;;;7.10;1.90;;;14.20;99.90;;;;;;5029446;28;20550;-53
2022/07/11 06:37:12;;;;;;;6.07;2.50;;;14.20;99.90;;;;;;5030709;28;20522;-53
2022/07/11 06:39:39;;;;;;;9.13;2.10;;;14.30;99.90;;;;;;5030892;28;20557;-53
2022/07/11 06:42:06;;;;;;;11.23;2.23;;;14.40;99.90;;;;;;5029977;28;20494;-53
2022/07/11 06:44:33;;;;;;;11.10;2.27;;;14.40;99.90;;;;;;5028729;28;20482;-54
2022/07/11 06:46:59;;;;;;;6.47;2.70;;;14.50;99.90;;;;;;5024156;28;20513;-53
2022/07/11 06:49:27;;;;;;;9.40;2.13;;;14.50;99.90;;;;;;5030848;28;20497;-54
2022/07/11 06:51:54;;;;;;;13.50;2.63;;;14.60;99.90;;;;;;5024944;28;20489;-54
2022/07/11 06:54:20;;;;;;;7.10;2.00;;;14.60;99.90;;;;;;5021605;28;20456;-53
2022/07/11 06:56:47;;;;;;;7.00;2.20;;;14.70;99.90;;;;;;5020749;28;20498;-54
2022/07/11 06:59:13;;;;;;;6.13;2.57;;;14.80;99.90;;;;;;5036649;28;20465;-52
2022/07/11 07:01:40;;;;;;;7.53;2.20;;;14.80;99.90;;;;;;5030735;28;20543;-52
2022/07/11 07:04:06;;;;;;;10.97;2.90;;;14.90;99.90;;;;;;5025747;28;20519;-51
2022/07/11 07:06:34;;;;;;;9.37;2.17;;;15.00;99.90;;;;;;5019487;28;20479;-52
2022/07/11 07:09:03;;;;;;;10.73;2.30;;;15.00;99.90;;;;;;5033401;28;20462;-52
2022/07/11 07:11:29;;;;;;;10.77;2.40;;;15.10;99.90;;;;;;5036563;28;20811;-53
2022/07/11 07:13:56;;;;;;;10.20;2.40;;;15.20;99.90;;;;;;5031430;28;20450;-52
2022/07/11 07:16:22;;;;;;;4.87;2.23;;;15.30;99.90;;;;;;5028673;28;20483;-52
2022/07/11 07:18:50;;;;;;;13.13;2.43;;;15.40;99.90;;;;;;5013164;28;21494;-53
2022/07/11 07:21:17;;;;;;;5.63;2.27;;;15.50;99.90;;;;;;5038262;28;20473;-52
2022/07/11 07:23:45;;;;;;;9.37;2.03;;;15.50;99.90;;;;;;5032669;28;20479;-54
2022/07/11 07:26:11;;;;;;;5.40;2.40;;;15.60;99.90;;;;;;5033778;28;20493;-54
2022/07/11 07:28:39;;;;;;;7.73;2.10;;;15.60;99.90;;;;;;5034402;28;21957;-54
2022/07/11 07:31:06;;;;;;;6.67;2.70;;;15.70;99.90;;;;;;5035932;28;20458;-53
2022/07/11 07:33:33;;;;;;;12.50;2.50;;;15.80;99.90;;;;;;5033210;28;20590;-54
2022/07/11 07:36:00;;;;;;;9.50;1.90;;;15.80;99.90;;;;;;5022898;28;20459;-53
2022/07/11 07:38:27;;;;;;;8.53;1.93;;;15.80;99.90;;;;;;5030989;28;20468;-53
2022/07/11 07:40:55;;;;;;;6.40;1.70;;;15.90;99.90;;;;;;5033185;28;20470;-54
2022/07/11 07:43:21;;;;;;;10.50;2.80;;;16.00;99.90;;;;;;5027578;28;20471;-53
2022/07/11 07:45:48;;;;;;;11.17;2.27;;;16.10;99.90;;;;;;5033549;28;20479;-54
2022/07/11 07:48:14;;;;;;;10.20;2.27;;;16.20;99.90;;;;;;5031993;28;20466;-53
2022/07/11 07:50:42;;;;;;;6.50;2.10;;;16.20;99.90;;;;;;5033588;28;20447;-53
2022/07/11 07:53:09;;;;;;;7.67;2.47;;;16.30;99.90;;;;;;5027433;28;20467;-53
2022/07/11 07:55:36;;;;;;;3.97;1.80;;;16.40;99.90;;;;;;5024589;28;21065;-53
2022/07/11 07:58:04;;;;;;;7.33;1.97;;;16.60;99.90;;;;;;5020646;23;20519;-51
2022/07/11 08:03:14;;;;;;;10.13;2.37;;;16.60;99.90;;;;;;5013719;28;20532;-51
2022/07/11 08:05:41;;;;;;;10.30;2.63;;;16.70;99.90;;;;;;5008584;28;20476;-51
2022/07/11 08:08:08;;;;;;;13.03;2.53;;;16.80;99.90;;;;;;5005044;28;20539;-51
2022/07/11 08:10:35;;;;;;;6.17;2.60;;;16.80;99.90;;;;;;5010030;28;20557;-52
2022/07/11 08:13:01;;;;;;;10.80;2.43;;;16.90;99.90;;;;;;5008416;28;20470;-52
2022/07/11 08:15:29;;;;;;;8.43;2.70;;;17.10;99.90;;;;;;5008381;28;20539;-52
2022/07/11 08:17:56;;;;;;;8.37;2.97;;;17.10;99.90;;;;;;5003151;28;20864;-52
2022/07/11 08:20:23;;;;;;;9.57;2.80;;;17.30;99.90;;;;;;5009338;28;20498;-51
2022/07/11 08:22:49;;;;;;;10.00;2.20;;;17.40;99.90;;;;;;5010497;28;20498;-52
2022/07/11 08:25:16;;;;;;;9.23;3.10;;;17.40;99.90;;;;;;5006050;28;20491;-52
2022/07/11 08:27:42;;;;;;;8.83;2.20;;;17.30;99.90;;;;;;5011969;28;21038;-51
2022/07/11 08:30:10;;;;;;;8.77;2.47;;;17.40;99.90;;;;;;5009452;28;20495;-52
2022/07/11 08:32:40;;;;;;;6.27;1.80;;;17.40;99.90;;;;;;5003772;28;21058;-52
2022/07/11 08:35:08;;;;;;;5.80;2.00;;;17.60;99.90;;;;;;5009311;28;20459;-51
2022/07/11 08:37:36;;;;;;;6.47;2.50;;;17.60;99.90;;;;;;5008839;28;20511;-52
2022/07/11 08:40:03;;;;;;;3.53;2.07;;;17.60;25.60;;;;;;5011506;28;20467;-51
2022/07/11 08:42:30;;;;;;;11.17;2.60;;;17.50;22.60;;;;;;5010269;28;20464;-52
2022/07/11 08:44:58;;;;;;;9.07;1.90;;;17.50;27.20;;;;;;5010219;28;21085;-52
2022/07/11 08:47:25;;;;;;;6.70;1.93;;;17.50;31.20;;;;;;5008001;28;20514;-52
2022/07/11 08:49:54;;;;;;;7.93;2.30;;;17.70;40.60;;;;;;5008877;28;20553;-52
2022/07/11 08:52:22;;;;;;;11.13;2.33;;;17.90;48.40;;;;;;5011015;28;20459;-53
2022/07/11 08:54:48;;;;;;;5.70;1.97;;;18.00;52.30;;;;;;5010691;28;20455;-53
2022/07/11 08:57:16;;;;;;;3.00;1.80;;;18.30;63.30;;;;;;5005930;28;20926;-52
2022/07/11 08:59:43;;;;;;;4.73;1.73;;;18.50;65.40;;;;;;5006303;28;20809;-52
2022/07/11 09:02:10;;;;;;;3.67;1.60;;;18.60;99.90;;;;;;5008484;28;20463;-52
2022/07/11 09:04:37;;;;;;;7.93;1.60;;;18.60;99.90;;;;;;5009815;28;20537;-51
2022/07/11 09:07:05;;;;;;;4.70;1.80;;;18.80;99.90;;;;;;5009911;28;21106;-52
2022/07/11 09:09:33;;;;;;;4.37;1.63;;;18.80;99.90;;;;;;5011106;28;20453;-52
2022/07/11 09:11:59;;;;;;;6.90;1.87;;;18.80;99.80;;;;;;5008491;28;20491;-52
2022/07/11 09:14:28;;;;;;;3.17;1.70;;;18.90;92.20;;;;;;5005335;28;20514;-51
2022/07/11 09:16:56;;;;;;;4.83;1.80;;;19.00;97.80;;;;;;5004988;28;20478;-52
2022/07/11 09:19:24;;;;;;;5.03;1.40;;;19.10;99.90;;;;;;5008132;28;20455;-52
2022/07/11 09:27:42;;;;;;;5.27;1.90;;;18.80;99.90;;;;;;5003597;28;20478;-52
2022/07/11 09:30:25;;;;;;;7.67;1.80;;;19.10;99.90;;;;;;5009203;28;20495;-51
2022/07/11 09:32:58;;;;;;;3.97;1.33;;;19.10;99.90;;;;;;5008701;28;20898;-51
2022/07/11 09:35:26;;;;;;;8.77;1.77;;;19.10;99.90;;;;;;5005544;28;20784;-51
2022/07/11 09:37:53;;;;;;;3.57;1.40;;;19.10;99.90;;;;;;4998224;28;20586;-51
2022/07/11 09:40:22;;;;;;;4.87;1.50;;;19.30;99.90;;;;;;5008094;28;20448;-51
2022/07/11 09:42:51;;;;;;;2.77;1.27;;;19.50;99.90;;;;;;5008705;28;20464;-52
2022/07/11 09:45:19;;;;;;;7.83;1.60;;;19.80;99.90;;;;;;5010911;28;20569;-51
2022/07/11 09:47:47;;;;;;;1.87;1.50;;;19.90;99.90;;;;;;5004436;28;20518;-52
2022/07/11 09:50:17;;;;;;;8.30;2.23;;;19.80;99.90;;;;;;5011552;28;20834;-53
2022/07/11 09:52:58;;;;;;;3.93;1.50;;;19.60;99.90;;;;;;5005662;28;20562;-52
2022/07/11 09:55:26;;;;;;;4.80;1.77;;;19.50;99.90;;;;;;5009747;28;20522;-53
2022/07/11 09:57:53;;;;;;;5.80;1.53;;;19.60;99.90;;;;;;5002414;28;20993;-52
2022/07/11 10:00:20;;;;;;;4.10;1.50;;;19.80;99.90;;;;;;5013932;28;20483;-51
2022/07/11 10:02:49;;;;;;;4.90;1.37;;;19.90;99.90;;;;;;5011056;28;20490;-51
2022/07/11 10:05:15;;;;;;;3.60;2.00;;;20.10;99.90;;;;;;5013558;28;20578;-52
2022/07/11 10:07:42;;;;;;;9.57;1.77;;;20.30;99.90;;;;;;5009049;28;20511;-52
2022/07/11 10:10:10;;;;;;;3.40;1.63;;;20.40;99.90;;;;;;5012302;28;20470;-51
2022/07/11 10:12:39;;;;;;;9.70;1.37;;;20.30;99.90;;;;;;5012221;28;20845;-52
2022/07/11 10:15:09;;;;;;;4.30;1.30;;;20.10;99.90;;;;;;5014206;28;20799;-52
2022/07/11 10:17:47;;;;;;;4.97;2.20;;;19.90;99.90;;;;;;5009438;28;20515;-52
2022/07/11 10:20:21;;;;;;;5.50;1.20;;;19.90;99.90;;;;;;5013462;28;20459;-53
2022/07/11 10:22:54;;;;;;;3.27;1.70;;;20.10;99.90;;;;;;5012395;28;20459;-52
2022/07/11 10:25:28;;;;;;;5.03;1.67;;;20.20;99.90;;;;;;5022506;28;20633;-51
2022/07/11 10:28:09;;;;;;;2.67;1.40;;;20.40;99.90;;;;;;5011536;28;20475;-53
2022/07/11 10:30:44;;;;;;;1.67;1.40;;;20.20;99.90;;;;;;5016096;28;20523;-52
2022/07/11 10:33:11;;;;;;;3.13;1.13;;;20.40;99.90;;;;;;5009715;28;20451;-51
2022/07/11 10:35:41;;;;;;;8.13;1.30;;;20.50;99.90;;;;;;5009087;28;20487;-52
2022/07/11 10:38:08;;;;;;;4.43;1.67;;;20.60;99.90;;;;;;5012863;28;20487;-52
2022/07/11 10:40:49;;;;;;;2.63;1.50;;;20.50;99.90;;;;;;5010622;28;20895;-53
2022/07/11 10:43:33;;;;;;;4.30;1.40;;;20.50;99.90;;;;;;5010037;28;20509;-51
2022/07/11 10:46:02;;;;;;;2.30;1.50;;;20.50;99.90;;;;;;5011021;28;20486;-51
2022/07/11 10:48:30;;;;;;;1.90;1.13;;;20.60;99.90;;;;;;5013375;28;20483;-53
2022/07/11 10:51:20;;;;;;;3.40;1.43;;;20.70;99.90;;;;;;5004584;28;20491;-52
2022/07/11 10:53:49;;;;;;;2.90;1.03;;;20.80;99.90;;;;;;5003216;28;20487;-52
2022/07/11 10:56:36;;;;;;;1.67;1.10;;;20.90;99.90;;;;;;5008268;28;20522;-52
2022/07/11 10:59:13;;;;;;;3.17;1.30;;;21.20;99.90;;;;;;5011705;28;20956;-52
2022/07/11 11:02:14;;;;;;;1.40;1.30;;;21.40;99.90;;;;;;5012442;28;20451;-52
2022/07/11 11:04:52;;;;;;;1.70;0.87;;;21.70;99.90;;;;;;5013286;28;20623;-52
2022/07/11 11:07:33;;;;;;;3.30;1.07;;;21.80;99.90;;;;;;5006723;28;20498;-52
2022/07/11 11:10:02;;;;;;;2.93;0.70;;;21.60;99.90;;;;;;5012092;28;20551;-51
2022/07/11 11:13:06;;;;;;;1.43;0.87;;;21.40;99.90;;;;;;5009936;28;20551;-52
2022/07/11 11:15:34;;;;;;;3.90;1.07;;;21.50;99.90;;;;;;5005663;28;20483;-52
2022/07/11 11:18:34;;;;;;;2.23;1.23;;;21.60;99.90;;;;;;5010858;28;20515;-52
2022/07/11 11:21:17;;;;;;;2.47;1.10;;;21.60;99.90;;;;;;5012616;28;20569;-52
2022/07/11 11:23:45;;;;;;;5.60;1.37;;;21.40;99.90;;;;;;5004427;28;20455;-53
2022/07/11 11:26:14;;;;;;;2.40;1.00;;;21.50;99.90;;;;;;5013213;28;20487;-52
2022/07/11 11:28:56;;;;;;;7.20;1.67;;;21.70;99.90;;;;;;5010577;28;20459;-52
2022/07/11 11:31:24;;;;;;;3.60;1.00;;;21.60;99.90;;;;;;5009039;28;20550;-52
2022/07/11 11:33:51;;;;;;;11.07;1.10;;;21.60;99.90;;;;;;5013130;28;20496;-53
2022/07/11 11:36:19;;;;;;;3.67;1.10;;;21.80;99.90;;;;;;5007454;28;20468;-51
2022/07/11 11:38:47;;;;;;;1.00;0.70;;;21.90;99.90;;;;;;5004644;28;20495;-52
2022/07/11 11:41:15;;;;;;;1.17;0.70;;;22.00;99.90;;;;;;5012899;28;20493;-51
2022/07/11 11:43:45;;;;;;;5.07;1.00;;;22.00;99.90;;;;;;5009010;28;20499;-52
2022/07/11 11:46:13;;;;;;;1.80;1.00;;;22.10;99.90;;;;;;5014797;28;20519;-52
2022/07/11 11:48:45;;;;;;;3.23;1.10;;;21.80;99.90;;;;;;5011287;28;20459;-53
2022/07/11 11:51:13;;;;;;;2.83;1.07;;;21.60;99.90;;;;;;5011780;28;20713;-52
2022/07/11 11:53:41;;;;;;;1.27;1.10;;;21.70;99.90;;;;;;5003764;28;20478;-52
2022/07/11 11:56:16;;;;;;;5.13;1.30;;;21.80;99.90;;;;;;5009819;28;20495;-52
2022/07/11 11:58:44;;;;;;;1.17;1.00;;;21.70;99.90;;;;;;5010143;28;21010;-52
2022/07/11 12:01:10;;;;;;;2.07;1.03;;;21.80;99.90;;;;;;5008137;28;20475;-52
2022/07/11 12:03:54;;;;;;;0.93;0.70;;;22.00;99.90;;;;;;5011740;28;20502;-52
2022/07/11 12:06:23;;;;;;;3.13;1.13;;;22.20;99.90;;;;;;5014700;28;20573;-52
2022/07/11 12:08:50;;;;;;;2.50;1.00;;;22.20;99.90;;;;;;5010122;28;20467;-53
2022/07/11 12:11:18;;;;;;;11.30;1.27;;;22.30;99.90;;;;;;5009387;28;20540;-53
2022/07/11 12:13:45;;;;;;;3.47;1.00;;;22.40;99.90;;;;;;5008020;28;20499;-52
2022/07/11 12:19:02;;;;;;;1.20;0.83;;;22.60;99.90;;;;;;5011756;28;20471;-53
2022/07/11 12:21:30;;;;;;;1.97;1.03;;;22.80;99.90;;;;;;5011161;28;20554;-52
2022/07/11 12:23:59;;;;;;;7.20;0.97;;;22.90;99.90;;;;;;5008956;28;20884;-51
2022/07/11 12:26:27;;;;;;;1.57;0.80;;;22.60;99.90;;;;;;5011509;28;20534;-53
2022/07/11 12:29:08;;;;;;;1.37;0.90;;;22.60;99.90;;;;;;5002290;28;20538;-53
2022/07/11 12:31:46;;;;;;;2.30;0.87;;;22.80;99.90;;;;;;5008693;28;20464;-52
2022/07/11 12:34:15;;;;;;;4.70;1.20;;;23.00;99.90;;;;;;5011279;28;20463;-51
2022/07/11 12:36:41;;;;;;;2.50;1.43;;;23.10;99.90;;;;;;5011564;28;20483;-52
2022/07/11 12:39:09;;;;;;;13.03;1.03;;;23.00;99.90;;;;;;5012059;28;20830;-52
2022/07/11 12:41:36;;;;;;;2.20;1.20;;;22.90;99.90;;;;;;5018716;28;20830;-51
2022/07/11 12:46:47;;;;;;;2.40;1.07;;;23.10;99.90;;;;;;5007690;28;20558;-52
2022/07/11 12:49:16;;;;;;;2.53;0.80;;;23.10;99.90;;;;;;5012628;28;20777;-53
2022/07/11 12:51:46;;;;;;;1.70;0.90;;;23.00;99.90;;;;;;5015208;28;20474;-53
2022/07/11 12:54:14;;;;;;;1.23;0.60;;;23.00;99.90;;;;;;5006593;28;20512;-52
2022/07/11 12:56:41;;;;;;;1.40;0.70;;;23.00;99.90;;;;;;5010759;28;20578;-51
2022/07/11 12:59:19;;;;;;;4.87;1.10;;;23.20;99.90;;;;;;5010800;28;20464;-52
2022/07/11 13:01:55;;;;;;;1.37;0.80;;;23.40;99.90;;;;;;5002926;28;20466;-52
2022/07/11 13:04:34;;;;;;;2.70;0.87;;;23.50;99.90;;;;;;5009773;28;20463;-53
2022/07/11 13:10:11;;;;;;;2.57;1.27;;;23.10;99.90;;;;;;5007426;28;20485;-52
2022/07/11 13:12:38;;;;;;;1.73;0.80;;;22.80;99.90;;;;;;5010062;28;20610;-53
2022/07/11 13:15:12;;;;;;;2.70;1.33;;;22.60;99.90;;;;;;5004792;28;20488;-53